createdAt,value
2017-10-02T00:01:34.350Z,7.00
2017-10-02T00:04:01.743Z,10.13
2017-10-02T00:06:29.125Z,8.17
2017-10-02T00:08:56.517Z,4.43
2017-10-02T00:11:23.911Z,21.53
2017-10-02T00:13:51.318Z,8.23
2017-10-02T00:16:18.714Z,10.10
2017-10-02T00:18:46.198Z,9.27
2017-10-02T00:21:13.653Z,6.10
2017-10-02T00:23:41.046Z,9.93
2017-10-02T00:26:08.438Z,10.00
2017-10-02T00:28:35.826Z,8.27
2017-10-02T00:31:03.222Z,4.97
2017-10-02T00:33:30.606Z,12.50
2017-10-02T00:35:58.002Z,11.67
2017-10-02T00:38:25.392Z,7.27
2017-10-02T00:40:52.782Z,7.77
2017-10-02T00:43:20.178Z,7.13
2017-10-02T00:45:47.577Z,7.23
2017-10-02T00:48:14.965Z,9.17
2017-10-02T00:50:42.427Z,10.83
2017-10-02T00:53:09.818Z,8.13
2017-10-02T00:55:37.207Z,6.40
2017-10-02T00:58:04.604Z,6.80
2017-10-02T01:00:31.991Z,8.70
2017-10-02T01:02:59.382Z,4.27
2017-10-02T01:05:26.762Z,8.23
2017-10-02T01:07:54.166Z,6.63
2017-10-02T01:10:21.562Z,9.53
2017-10-02T01:12:48.965Z,8.83
2017-10-02T01:15:16.342Z,8.10
2017-10-02T01:17:43.744Z,9.93
2017-10-02T01:20:11.130Z,6.70
2017-10-02T01:22:38.531Z,6.83
2017-10-02T01:25:05.925Z,15.23
2017-10-02T01:27:33.315Z,7.47
2017-10-02T01:30:00.716Z,10.43
2017-10-02T01:32:28.118Z,10.70
2017-10-02T01:34:55.514Z,10.93
2017-10-02T01:37:22.974Z,11.53
2017-10-02T01:39:50.430Z,8.20
2017-10-02T01:42:17.823Z,16.00
2017-10-02T01:44:45.242Z,10.20
2017-10-02T01:47:12.699Z,12.40
2017-10-02T01:49:40.094Z,7.23
2017-10-02T01:52:07.477Z,5.37
2017-10-02T01:54:34.865Z,6.40
2017-10-02T01:57:02.254Z,5.50
2017-10-02T01:59:30.322Z,19.03
2017-10-02T02:01:57.755Z,12.17
2017-10-02T02:04:25.202Z,11.30
2017-10-02T02:06:52.586Z,16.77
2017-10-02T02:09:19.983Z,8.90
2017-10-02T02:11:47.365Z,6.93
2017-10-02T02:14:14.761Z,12.23
2017-10-02T02:16:42.147Z,11.03
2017-10-02T02:19:09.540Z,13.13
2017-10-02T02:21:36.922Z,9.23
2017-10-02T02:24:04.316Z,7.10
2017-10-02T02:26:31.703Z,10.20
2017-10-02T02:28:59.145Z,8.23
2017-10-02T02:31:26.535Z,7.43
2017-10-02T02:33:53.967Z,7.13
2017-10-02T02:36:21.349Z,9.30
2017-10-02T02:38:48.735Z,7.37
2017-10-02T02:41:16.236Z,11.10
2017-10-02T02:43:43.614Z,9.93
2017-10-02T02:46:11.010Z,6.53
2017-10-02T02:48:38.498Z,12.27
2017-10-02T02:51:05.882Z,5.03
2017-10-02T02:53:33.266Z,9.97
2017-10-02T02:56:00.763Z,5.53
2017-10-02T02:58:28.154Z,8.93
2017-10-02T03:00:55.548Z,5.00
2017-10-02T03:03:22.930Z,5.83
2017-10-02T03:05:50.326Z,4.10
2017-10-02T03:08:17.710Z,8.77
2017-10-02T03:10:45.116Z,14.77
2017-10-02T03:13:12.499Z,7.47
2017-10-02T03:15:39.891Z,8.43
2017-10-02T03:18:07.276Z,5.23
2017-10-02T03:20:34.673Z,6.63
2017-10-02T03:23:02.074Z,9.23
2017-10-02T03:25:29.463Z,11.77
2017-10-02T03:27:56.849Z,8.57
2017-10-02T03:30:24.250Z,4.40
2017-10-02T03:32:54.562Z,3.90
2017-10-02T03:35:21.951Z,7.10
2017-10-02T03:37:49.346Z,9.00
2017-10-02T03:40:16.743Z,7.20
2017-10-02T03:42:44.139Z,6.50
2017-10-02T03:45:11.530Z,11.40
2017-10-02T03:47:38.935Z,10.70
2017-10-02T03:50:06.318Z,8.93
2017-10-02T03:52:33.719Z,8.63
2017-10-02T03:55:01.116Z,6.33
2017-10-02T03:57:28.515Z,9.03
2017-10-02T03:59:55.898Z,9.57
2017-10-02T04:02:23.301Z,14.43
2017-10-02T04:04:50.686Z,6.60
2017-10-02T04:07:18.075Z,7.93
2017-10-02T04:09:45.463Z,7.23
2017-10-02T04:12:12.885Z,13.83
2017-10-02T04:14:40.275Z,8.57
2017-10-02T04:17:07.671Z,9.53
2017-10-02T04:19:35.056Z,9.07
2017-10-02T04:22:02.439Z,6.10
2017-10-02T04:24:29.841Z,10.90
2017-10-02T04:26:57.278Z,11.37
2017-10-02T04:29:24.674Z,5.90
2017-10-02T04:31:52.063Z,8.50
2017-10-02T04:34:19.446Z,8.77
2017-10-02T04:36:46.830Z,8.00
2017-10-02T04:39:14.223Z,8.57
2017-10-02T04:41:41.608Z,9.07
2017-10-02T04:44:09.011Z,11.03
2017-10-02T04:46:36.422Z,12.97
2017-10-02T04:49:03.827Z,12.03
2017-10-02T04:51:31.246Z,14.20
2017-10-02T04:53:58.633Z,9.23
2017-10-02T04:56:26.014Z,9.67
2017-10-02T04:58:53.414Z,16.00
2017-10-02T05:01:20.854Z,7.25
2017-10-02T05:03:48.326Z,11.40
2017-10-02T05:06:15.698Z,7.33
2017-10-02T05:08:43.086Z,14.07
2017-10-02T05:11:10.491Z,14.37
2017-10-02T05:13:37.875Z,10.50
2017-10-02T05:16:05.287Z,10.80
2017-10-02T05:18:32.674Z,14.90
2017-10-02T05:21:00.086Z,13.63
2017-10-02T05:23:27.470Z,7.03
2017-10-02T05:25:54.871Z,9.80
2017-10-02T05:28:22.254Z,15.83
2017-10-02T05:30:49.719Z,11.05
2017-10-02T05:33:17.112Z,15.50
2017-10-02T05:35:44.510Z,15.93
2017-10-02T05:38:11.896Z,13.03
2017-10-02T05:40:39.298Z,17.63
2017-10-02T05:43:06.690Z,10.97
2017-10-02T05:45:34.146Z,17.40
2017-10-02T05:48:01.539Z,11.50
2017-10-02T05:50:28.977Z,13.67
2017-10-02T05:52:56.350Z,20.83
2017-10-02T05:55:23.759Z,16.90
2017-10-02T05:57:51.158Z,11.00
2017-10-02T06:00:18.550Z,15.40
2017-10-02T06:02:46.037Z,15.50
2017-10-02T06:05:13.431Z,13.57
2017-10-02T06:07:40.846Z,16.07
2017-10-02T06:10:08.303Z,20.60
2017-10-02T06:12:35.705Z,13.03
2017-10-02T06:15:03.094Z,16.33
2017-10-02T06:17:30.498Z,20.13
2017-10-02T06:19:57.893Z,15.63
2017-10-02T06:22:25.295Z,15.73
2017-10-02T06:24:52.679Z,13.30
2017-10-02T06:27:20.079Z,15.90
2017-10-02T06:29:47.475Z,16.43
2017-10-02T06:32:14.878Z,15.47
2017-10-02T06:34:42.276Z,14.20
2017-10-02T06:37:09.737Z,14.33
2017-10-02T06:39:37.114Z,12.77
2017-10-02T06:42:04.514Z,15.20
2017-10-02T06:44:31.901Z,10.40
2017-10-02T06:46:59.298Z,12.10
2017-10-02T06:49:26.689Z,17.90
2017-10-02T06:51:54.082Z,8.67
2017-10-02T06:54:21.479Z,15.43
2017-10-02T06:56:48.898Z,17.10
2017-10-02T06:59:16.282Z,12.93
2017-10-02T07:01:43.673Z,12.80
2017-10-02T07:04:11.222Z,9.77
2017-10-02T07:06:38.619Z,15.07
2017-10-02T07:09:06.012Z,6.37
2017-10-02T07:11:33.408Z,12.63
2017-10-02T07:14:00.811Z,10.80
2017-10-02T07:16:28.201Z,10.93
2017-10-02T07:18:55.662Z,15.90
2017-10-02T07:21:23.114Z,10.33
2017-10-02T07:23:50.506Z,7.60
2017-10-02T07:26:17.894Z,6.20
2017-10-02T07:28:45.289Z,13.73
2017-10-02T07:31:12.687Z,16.03
2017-10-02T07:33:40.198Z,8.63
2017-10-02T07:36:07.586Z,8.40
2017-10-02T07:38:34.980Z,10.87
2017-10-02T07:41:02.385Z,9.30
2017-10-02T07:43:29.771Z,8.00
2017-10-02T07:45:57.170Z,6.27
2017-10-02T07:48:24.550Z,9.40
2017-10-02T07:50:51.978Z,8.07
2017-10-02T07:53:19.362Z,7.00
2017-10-02T07:55:46.759Z,12.97
2017-10-02T07:58:14.150Z,12.60
2017-10-02T08:00:41.566Z,11.63
2017-10-02T08:03:08.958Z,12.57
2017-10-02T08:05:36.380Z,18.07
2017-10-02T08:08:03.762Z,9.47
2017-10-02T08:10:31.162Z,11.90
2017-10-02T08:12:58.555Z,8.87
2017-10-02T08:15:25.951Z,9.43
2017-10-02T08:17:53.343Z,10.80
2017-10-02T08:20:20.736Z,9.93
2017-10-02T08:22:48.127Z,11.23
2017-10-02T08:25:15.530Z,17.03
2017-10-02T08:27:42.914Z,8.10
2017-10-02T08:30:10.307Z,9.67
2017-10-02T08:32:37.718Z,6.90
2017-10-02T08:35:05.100Z,7.20
2017-10-02T08:37:32.503Z,11.13
2017-10-02T08:39:59.890Z,10.13
2017-10-02T08:42:27.283Z,7.47
2017-10-02T08:44:54.679Z,6.57
2017-10-02T08:47:22.071Z,7.23
2017-10-02T08:49:49.458Z,9.40
2017-10-02T08:52:16.856Z,5.33
2017-10-02T08:54:44.239Z,7.20
2017-10-02T08:57:11.631Z,6.10
2017-10-02T08:59:39.018Z,5.00
2017-10-02T09:02:06.582Z,5.03
2017-10-02T09:04:33.990Z,9.00
2017-10-02T09:07:01.382Z,7.60
2017-10-02T09:09:28.768Z,5.00
2017-10-02T09:11:56.162Z,4.53
2017-10-02T09:14:23.551Z,9.20
2017-10-02T09:16:50.940Z,7.97
2017-10-02T09:19:18.322Z,8.10
2017-10-02T09:21:45.712Z,6.83
2017-10-02T09:24:13.185Z,6.73
2017-10-02T09:26:40.566Z,6.03
2017-10-02T09:29:07.964Z,5.47
2017-10-02T09:31:35.359Z,9.07
2017-10-02T09:34:02.751Z,6.27
2017-10-02T09:36:30.139Z,6.53
2017-10-02T09:38:57.536Z,11.90
2017-10-02T09:41:24.922Z,5.37
2017-10-02T09:43:52.314Z,7.60
2017-10-02T09:46:19.700Z,7.97
2017-10-02T09:48:47.107Z,5.87
2017-10-02T09:51:14.495Z,5.60
2017-10-02T09:53:41.935Z,5.43
2017-10-02T09:56:09.318Z,8.43
2017-10-02T09:58:36.752Z,5.43
2017-10-02T10:01:04.133Z,5.63
2017-10-02T10:03:31.647Z,7.10
2017-10-02T10:05:59.034Z,6.50
2017-10-02T10:08:26.486Z,6.97
2017-10-02T10:10:53.878Z,7.93
2017-10-02T10:13:21.266Z,5.93
2017-10-02T10:15:48.818Z,8.40
2017-10-02T10:18:16.319Z,6.07
2017-10-02T10:20:43.706Z,8.20
2017-10-02T10:23:11.094Z,10.80
2017-10-02T10:25:38.496Z,9.03
2017-10-02T10:28:05.879Z,10.03
2017-10-02T10:30:33.273Z,8.73
2017-10-02T10:33:00.667Z,11.73
2017-10-02T10:35:28.068Z,11.17
2017-10-02T10:37:55.554Z,13.43
2017-10-02T10:40:23.018Z,15.63
2017-10-02T10:42:50.402Z,13.67
2017-10-02T10:45:17.798Z,8.53
2017-10-02T10:47:45.192Z,11.30
2017-10-02T10:50:12.582Z,14.63
2017-10-02T10:52:39.974Z,12.30
2017-10-02T10:55:07.450Z,13.33
2017-10-02T10:57:34.838Z,9.70
2017-10-02T11:00:02.238Z,10.20
2017-10-02T11:02:29.628Z,12.70
2017-10-02T11:04:57.125Z,11.77
2017-10-02T11:07:24.696Z,9.13
2017-10-02T11:09:52.106Z,9.87
2017-10-02T11:12:19.490Z,8.87
2017-10-02T11:14:46.950Z,16.60
2017-10-02T11:17:14.344Z,15.97
2017-10-02T11:19:41.734Z,13.87
2017-10-02T11:22:09.122Z,10.93
2017-10-02T11:24:36.561Z,9.70
2017-10-02T11:27:03.950Z,12.13
2017-10-02T11:29:31.377Z,12.43
2017-10-02T11:31:58.840Z,15.70
2017-10-02T11:34:26.242Z,15.00
2017-10-02T11:36:53.630Z,13.83
2017-10-02T11:39:21.031Z,11.17
2017-10-02T11:41:48.429Z,16.83
2017-10-02T11:44:15.914Z,10.80
2017-10-02T11:46:43.321Z,13.23
2017-10-02T11:49:10.712Z,9.60
2017-10-02T11:51:38.118Z,10.23
2017-10-02T11:54:05.514Z,13.63
2017-10-02T11:56:32.994Z,11.90
2017-10-02T11:59:00.390Z,14.53
2017-10-02T12:01:27.778Z,10.87
2017-10-02T12:03:55.182Z,14.67
2017-10-02T12:06:22.571Z,22.47
2017-10-02T12:08:50.075Z,15.03
2017-10-02T12:11:17.471Z,15.53
2017-10-02T12:13:44.862Z,10.70
2017-10-02T12:16:12.312Z,17.27
2017-10-02T12:21:13.462Z,12.57
2017-10-02T12:23:40.867Z,18.93
2017-10-02T12:26:08.325Z,37.40
2017-10-02T12:28:35.721Z,20.00
2017-10-02T12:31:03.102Z,19.73
2017-10-02T12:33:30.498Z,23.60
2017-10-02T12:35:57.890Z,18.63
2017-10-02T12:38:25.286Z,19.20
2017-10-02T12:40:52.678Z,27.70
2017-10-02T12:43:20.079Z,21.10
2017-10-02T12:45:47.562Z,17.50
2017-10-02T12:48:14.958Z,20.90
2017-10-02T12:50:42.353Z,25.33
2017-10-02T12:53:09.749Z,21.27
2017-10-02T12:55:37.143Z,12.83
2017-10-02T12:58:04.641Z,25.80
2017-10-02T13:00:32.038Z,36.27
2017-10-02T13:02:59.451Z,21.37
2017-10-02T13:05:26.837Z,24.93
2017-10-02T13:07:54.226Z,15.73
2017-10-02T13:10:21.630Z,23.93
2017-10-02T13:12:49.078Z,26.13
2017-10-02T13:15:16.476Z,23.97
2017-10-02T13:17:43.864Z,27.10
2017-10-02T13:20:11.268Z,20.63
2017-10-02T13:22:38.654Z,19.00
2017-10-02T13:25:06.055Z,19.80
2017-10-02T13:27:33.446Z,23.90
2017-10-02T13:30:00.843Z,28.83
2017-10-02T13:32:28.226Z,19.90
2017-10-02T13:34:55.622Z,26.43
2017-10-02T13:37:23.006Z,24.50
2017-10-02T13:39:50.494Z,22.37
2017-10-02T13:42:17.886Z,25.63
2017-10-02T13:44:45.278Z,26.70
2017-10-02T13:47:12.676Z,27.33
2017-10-02T13:49:40.067Z,20.13
2017-10-02T13:52:07.462Z,28.10
2017-10-02T13:54:34.851Z,23.80
2017-10-02T13:57:02.260Z,29.20
2017-10-02T13:59:30.272Z,31.63
2017-10-02T14:01:57.677Z,21.73
2017-10-02T14:04:25.062Z,18.70
2017-10-02T14:06:52.462Z,25.87
2017-10-02T14:09:19.854Z,29.83
2017-10-02T14:11:47.258Z,27.97
2017-10-02T14:14:14.646Z,27.77
2017-10-02T14:16:42.038Z,23.30
2017-10-02T14:19:09.426Z,31.57
2017-10-02T14:21:36.830Z,23.37
2017-10-02T14:24:04.223Z,26.00
2017-10-02T14:26:31.610Z,38.37
2017-10-02T14:28:59.082Z,29.63
2017-10-02T14:31:26.530Z,27.43
2017-10-02T14:33:53.930Z,23.47
2017-10-02T14:36:21.318Z,22.00
2017-10-02T14:38:48.728Z,26.10
2017-10-02T14:41:16.119Z,23.93
2017-10-02T14:43:43.516Z,19.20
2017-10-02T14:46:10.902Z,26.80
2017-10-02T14:48:38.299Z,25.97
2017-10-02T14:51:05.687Z,31.77
2017-10-02T14:53:33.084Z,27.43
2017-10-02T14:56:00.474Z,24.33
2017-10-02T14:58:27.874Z,21.73
2017-10-02T15:00:55.266Z,28.70
2017-10-02T15:03:22.774Z,28.90
2017-10-02T15:05:50.210Z,26.00
2017-10-02T15:08:17.606Z,24.80
2017-10-02T15:10:44.994Z,29.30
2017-10-02T15:13:12.434Z,29.13
2017-10-02T15:15:39.818Z,30.53
2017-10-02T15:18:07.216Z,25.40
2017-10-02T15:20:34.699Z,23.97
2017-10-02T15:23:02.158Z,32.20
2017-10-02T15:25:29.610Z,32.83
2017-10-02T15:27:57.015Z,26.13
2017-10-02T15:30:24.407Z,29.07
2017-10-02T15:32:51.803Z,29.67
2017-10-02T15:35:19.198Z,25.93
2017-10-02T15:37:46.698Z,32.90
2017-10-02T15:40:14.090Z,15.83
2017-10-02T15:42:41.480Z,27.67
2017-10-02T15:45:08.894Z,21.30
2017-10-02T15:47:36.270Z,26.87
2017-10-02T15:50:03.666Z,27.53
2017-10-02T15:52:31.137Z,28.80
2017-10-02T15:54:58.527Z,31.50
2017-10-02T15:57:25.915Z,35.50
2017-10-02T15:59:53.400Z,27.57
2017-10-02T16:02:20.796Z,18.83
2017-10-02T16:04:48.203Z,43.13
2017-10-02T16:07:15.589Z,28.63
2017-10-02T16:09:42.974Z,21.03
2017-10-02T16:12:10.370Z,27.73
2017-10-02T16:14:37.762Z,33.33
2017-10-02T16:17:05.158Z,19.30
2017-10-02T16:19:32.546Z,28.43
2017-10-02T16:21:59.975Z,32.00
2017-10-02T16:24:27.420Z,37.50
2017-10-02T16:26:54.811Z,33.00
2017-10-02T16:29:22.218Z,24.30
2017-10-02T16:31:49.618Z,21.57
2017-10-02T16:34:17.014Z,25.90
2017-10-02T16:36:44.418Z,25.13
2017-10-02T16:39:11.890Z,30.77
2017-10-02T16:41:39.282Z,26.43
2017-10-02T16:44:06.671Z,45.27
2017-10-02T16:46:34.073Z,34.43
2017-10-02T16:49:01.463Z,36.80
2017-10-02T16:51:28.861Z,33.73
2017-10-02T16:53:56.256Z,25.90
2017-10-02T16:56:23.661Z,33.43
2017-10-02T16:58:51.139Z,32.47
2017-10-02T17:01:18.558Z,43.53
2017-10-02T17:03:46.046Z,39.60
2017-10-02T17:06:13.446Z,39.87
2017-10-02T17:08:40.846Z,44.80
2017-10-02T17:11:08.246Z,120.40
2017-10-02T17:13:35.648Z,85.13
2017-10-02T17:16:03.044Z,55.40
2017-10-02T17:18:30.446Z,39.67
2017-10-02T17:20:57.934Z,36.20
2017-10-02T17:23:25.330Z,37.47
2017-10-02T17:25:52.726Z,42.80
2017-10-02T17:28:20.124Z,39.30
2017-10-02T17:30:47.520Z,40.53
2017-10-02T17:33:14.919Z,46.00
2017-10-02T17:35:42.306Z,25.07
2017-10-02T17:38:09.702Z,49.97
2017-10-02T17:40:37.090Z,34.00
2017-10-02T17:43:04.498Z,26.63
2017-10-02T17:45:31.902Z,42.70
2017-10-02T17:47:59.303Z,54.70
2017-10-02T17:50:26.697Z,41.80
2017-10-02T17:52:54.106Z,40.23
2017-10-02T17:55:21.510Z,37.40
2017-10-02T17:57:48.894Z,40.73
2017-10-02T18:00:16.286Z,38.73
2017-10-02T18:02:43.786Z,27.17
2017-10-02T18:05:11.177Z,34.43
2017-10-02T18:07:38.598Z,60.03
2017-10-02T18:10:06.006Z,36.83
2017-10-02T18:12:33.456Z,40.23
2017-10-02T18:15:00.883Z,30.17
2017-10-02T18:17:28.254Z,38.00
2017-10-02T18:19:55.657Z,36.27
2017-10-02T18:22:23.095Z,38.47
2017-10-02T18:24:50.594Z,32.07
2017-10-02T18:27:18.014Z,29.50
2017-10-02T18:29:46.255Z,43.33
2017-10-02T18:32:13.655Z,30.23
2017-10-02T18:34:41.054Z,34.50
2017-10-02T18:37:08.515Z,37.40
2017-10-02T18:39:35.947Z,62.83
2017-10-02T18:42:03.368Z,32.47
2017-10-02T18:44:30.953Z,32.00
2017-10-02T18:46:58.342Z,36.63
2017-10-02T18:49:25.730Z,33.83
2017-10-02T18:51:53.130Z,33.87
2017-10-02T18:54:20.522Z,25.83
2017-10-02T18:56:47.922Z,37.67
2017-10-02T18:59:15.550Z,32.57
2017-10-02T19:01:42.943Z,36.95
2017-10-02T19:04:10.382Z,31.03
2017-10-02T19:06:37.782Z,41.27
2017-10-02T19:09:05.179Z,41.10
2017-10-02T19:11:32.577Z,67.53
2017-10-02T19:13:59.986Z,26.77
2017-10-02T19:16:27.532Z,39.10
2017-10-02T19:18:54.943Z,37.80
2017-10-02T19:21:22.406Z,29.67
2017-10-02T19:23:49.798Z,46.83
2017-10-02T19:26:17.224Z,54.40
2017-10-02T19:28:44.817Z,32.07
2017-10-02T19:31:13.107Z,43.10
2017-10-02T19:33:40.617Z,38.10
2017-10-02T19:36:08.090Z,41.10
2017-10-02T19:38:35.509Z,43.30
2017-10-02T19:41:02.915Z,44.00
2017-10-02T19:43:30.421Z,79.27
2017-10-02T19:45:57.900Z,56.60
2017-10-02T19:48:25.342Z,63.53
2017-10-02T19:50:52.734Z,39.37
2017-10-02T19:53:20.148Z,25.20
2017-10-02T19:55:47.533Z,36.87
2017-10-02T19:58:14.934Z,30.10
2017-10-02T20:00:43.427Z,34.43
2017-10-02T20:03:10.927Z,43.33
2017-10-02T20:05:38.310Z,35.10
2017-10-02T20:08:05.726Z,44.63
2017-10-02T20:10:33.109Z,46.47
2017-10-02T20:13:00.538Z,43.87
2017-10-02T20:15:27.978Z,31.50
2017-10-02T20:17:55.377Z,32.27
2017-10-02T20:20:22.779Z,29.50
2017-10-02T20:22:50.264Z,36.60
2017-10-02T20:25:17.654Z,31.90
2017-10-02T20:27:45.042Z,44.67
2017-10-02T20:30:12.451Z,48.87
2017-10-02T20:32:39.841Z,42.67
2017-10-02T20:35:07.347Z,34.13
2017-10-02T20:37:34.734Z,31.40
2017-10-02T20:40:02.138Z,38.20
2017-10-02T20:42:29.617Z,37.30
2017-10-02T20:44:57.014Z,34.53
2017-10-02T20:47:24.411Z,38.80
2017-10-02T20:49:51.890Z,31.87
2017-10-02T20:52:19.276Z,38.33
2017-10-02T20:54:46.669Z,34.93
2017-10-02T20:57:14.064Z,27.83
2017-10-02T20:59:41.522Z,30.77
2017-10-02T21:02:08.898Z,30.10
2017-10-02T21:04:36.332Z,37.40
2017-10-02T21:07:03.722Z,29.67
2017-10-02T21:09:31.122Z,33.50
2017-10-02T21:11:58.505Z,31.43
2017-10-02T21:14:25.906Z,33.53
2017-10-02T21:16:53.296Z,45.07
2017-10-02T21:19:20.695Z,36.27
2017-10-02T21:21:48.086Z,24.97
2017-10-02T21:24:15.486Z,62.60
2017-10-02T21:26:42.962Z,35.13
2017-10-02T21:29:10.373Z,34.10
2017-10-02T21:31:37.762Z,30.10
2017-10-02T21:34:05.279Z,33.03
2017-10-02T21:36:32.666Z,31.93
2017-10-02T21:39:00.095Z,30.43
2017-10-02T21:41:27.496Z,34.97
2017-10-02T21:43:54.883Z,35.53
2017-10-02T21:46:22.380Z,33.70
2017-10-02T21:48:49.770Z,33.47
2017-10-02T21:51:17.196Z,52.83
2017-10-02T21:53:44.582Z,42.57
2017-10-02T21:56:12.094Z,47.50
2017-10-02T21:58:39.487Z,40.80
2017-10-02T22:01:06.897Z,47.30
2017-10-02T22:03:34.278Z,28.43
2017-10-02T22:06:01.678Z,46.83
2017-10-02T22:08:29.077Z,50.80
2017-10-02T22:10:56.474Z,34.63
2017-10-02T22:13:23.874Z,35.73
2017-10-02T22:15:51.277Z,48.10
2017-10-02T22:18:18.690Z,29.50
2017-10-02T22:20:46.099Z,28.30
2017-10-02T22:23:13.481Z,30.33
2017-10-02T22:25:40.946Z,42.10
2017-10-02T22:28:08.337Z,35.60
2017-10-02T22:30:35.731Z,33.47
2017-10-02T22:33:03.148Z,23.13
2017-10-02T22:35:30.537Z,25.73
2017-10-02T22:37:57.934Z,31.23
2017-10-02T22:40:25.327Z,30.53
2017-10-02T22:42:52.727Z,29.57
2017-10-02T22:45:20.199Z,42.97
2017-10-02T22:47:47.662Z,33.67
2017-10-02T22:50:15.046Z,23.63
2017-10-02T22:52:42.450Z,31.93
2017-10-02T22:55:09.840Z,38.87
2017-10-02T22:57:37.234Z,27.50
2017-10-02T23:00:04.618Z,19.50
2017-10-02T23:02:32.024Z,19.80
2017-10-02T23:04:59.414Z,37.57
2017-10-02T23:07:26.814Z,37.70
2017-10-02T23:09:54.198Z,30.57
2017-10-02T23:12:21.615Z,27.13
2017-10-02T23:14:49.008Z,30.23
2017-10-02T23:17:16.403Z,28.80
2017-10-02T23:19:43.810Z,31.20
2017-10-02T23:22:11.230Z,35.13
2017-10-02T23:24:38.625Z,31.90
2017-10-02T23:27:06.042Z,29.50
2017-10-02T23:29:33.444Z,33.77
2017-10-02T23:32:00.833Z,27.80
2017-10-02T23:34:28.235Z,29.70
2017-10-02T23:36:55.627Z,38.80
2017-10-02T23:39:23.027Z,33.93
2017-10-02T23:41:50.423Z,27.60
2017-10-02T23:44:18.447Z,42.90
2017-10-02T23:46:46.430Z,38.07
2017-10-02T23:49:13.865Z,39.17
2017-10-02T23:51:41.266Z,30.37
2017-10-02T23:54:08.682Z,31.63
2017-10-02T23:56:36.067Z,24.53
2017-10-02T23:59:03.516Z,30.70
